Time;durP1;ratioP1;P1;durP2;ratioP2;P2;SDS_P1;SDS_P2;PMS_P1;PMS_P2;Temp;Humidity;BMP_temperature;BMP_pressure;BME280_temperature;BME280_humidity;BME280_pressure;Samples;Min_cycle;Max_cycle;Signal;HPM_P1;HPM_P2
2022/03/13 00:00:27;;;;;;;11.07;6.93;;;;;;;13.25;47.00;101447.72;5184393;28;20447;-46
2022/03/13 00:03:03;;;;;;;7.80;5.28;;;;;;;13.18;47.14;101443.97;5181318;28;20426;-48
2022/03/13 00:05:40;;;;;;;8.13;4.93;;;;;;;13.20;47.02;101457.94;5182444;28;20414;-52
2022/03/13 00:08:25;;;;;;;5.85;4.70;;;;;;;13.13;47.06;101436.47;5179669;28;20418;-47
2022/03/13 00:11:00;;;;;;;7.07;4.53;;;;;;;13.14;47.14;101456.72;5181590;28;20430;-47
2022/03/13 00:13:34;;;;;;;5.05;4.43;;;;;;;13.06;47.16;101434.56;5179294;28;20903;-48
2022/03/13 00:16:09;;;;;;;5.90;4.10;;;;;;;13.15;47.26;101460.19;5185473;28;20911;-46
2022/03/13 00:18:46;;;;;;;5.05;4.43;;;;;;;13.12;47.33;101457.84;5181202;28;20413;-47
2022/03/13 00:21:21;;;;;;;4.60;4.20;;;;;;;13.10;47.20;101457.16;5185337;28;20431;-51
2022/03/13 00:23:53;;;;;;;4.50;3.53;;;;;;;13.03;47.32;101445.47;5184672;28;20775;-46
2022/03/13 00:26:26;;;;;;;6.23;3.63;;;;;;;13.13;47.26;101463.00;5184339;28;20470;-50
2022/03/13 00:28:58;;;;;;;5.20;3.95;;;;;;;13.16;47.25;101459.19;5185938;28;20497;-49
2022/03/13 00:31:31;;;;;;;4.07;3.67;;;;;;;13.17;47.13;101447.63;5181934;28;20874;-52
2022/03/13 00:34:03;;;;;;;4.07;3.33;;;;;;;13.23;47.20;101452.31;5182608;28;20834;-49
2022/03/13 00:36:37;;;;;;;4.72;4.25;;;;;;;13.18;47.02;101453.75;5185514;28;20413;-48
2022/03/13 00:39:10;;;;;;;5.45;4.00;;;;;;;13.10;47.20;101446.53;5181265;28;20442;-46
2022/03/13 00:41:44;;;;;;;3.67;3.22;;;;;;;13.15;47.29;101457.53;5182573;28;20419;-46
2022/03/13 00:44:16;;;;;;;5.13;3.80;;;;;;;13.13;47.30;101455.06;5186293;28;20422;-47
2022/03/13 00:46:49;;;;;;;4.68;3.70;;;;;;;13.12;47.46;101457.84;5185622;28;20425;-50
2022/03/13 00:49:21;;;;;;;3.47;3.17;;;;;;;13.13;47.42;101452.41;5185505;28;20433;-47
2022/03/13 00:51:58;;;;;;;4.15;3.45;;;;;;;13.15;47.33;101452.22;5183678;28;20427;-46
2022/03/13 00:54:33;;;;;;;5.50;4.37;;;;;;;13.13;47.41;101440.94;5165792;28;20803;-53
2022/03/13 00:57:06;;;;;;;6.38;5.57;;;;;;;13.08;47.50;101443.22;5164743;28;20421;-48
2022/03/13 00:59:38;;;;;;;9.90;7.22;;;;;;;13.01;47.42;101426.25;5157816;28;20397;-47
2022/03/13 01:02:11;;;;;;;10.45;6.97;;;;;;;12.89;47.47;101421.16;5163228;28;20412;-49
2022/03/13 01:04:43;;;;;;;8.57;6.67;;;;;;;13.00;47.53;101451.09;5164094;28;20420;-48
2022/03/13 01:07:17;;;;;;;6.50;5.20;;;;;;;12.94;47.66;101431.31;5167477;28;20416;-49
2022/03/13 01:09:50;;;;;;;6.28;5.10;;;;;;;13.00;47.71;101438.66;5166726;28;20507;-47
2022/03/13 01:12:23;;;;;;;5.55;4.13;;;;;;;13.01;47.75;101439.53;5167505;28;20417;-46
2022/03/13 01:14:55;;;;;;;6.32;4.55;;;;;;;12.99;47.82;101438.81;5166942;28;20499;-48
2022/03/13 01:17:28;;;;;;;6.37;5.37;;;;;;;13.00;47.84;101441.31;5166673;28;20445;-47
2022/03/13 01:20:01;;;;;;;9.38;6.13;;;;;;;12.79;47.74;101407.16;5160543;28;20794;-47
2022/03/13 01:22:35;;;;;;;9.25;6.93;;;;;;;12.93;47.97;101435.78;5166442;28;20922;-48
2022/03/13 01:25:08;;;;;;;9.95;6.60;;;;;;;12.88;48.09;101432.78;5164983;28;20417;-46
2022/03/13 01:27:41;;;;;;;17.40;8.38;;;;;;;12.87;48.00;101425.78;5166054;28;20432;-48
2022/03/13 01:30:14;;;;;;;10.10;7.82;;;;;;;12.84;48.01;101426.06;5170210;28;20499;-49
2022/03/13 01:32:53;;;;;;;10.32;7.32;;;;;;;12.86;47.80;101433.91;5166007;28;20444;-51
2022/03/13 01:35:26;;;;;;;11.75;7.53;;;;;;;12.72;48.15;101406.06;5167912;28;20785;-50
2022/03/13 01:38:00;;;;;;;10.73;6.85;;;;;;;12.84;48.10;101428.72;5155888;28;20753;-47
2022/03/13 01:40:32;;;;;;;8.93;6.03;;;;;;;12.71;48.06;101407.06;5165415;28;20582;-47
2022/03/13 01:43:05;;;;;;;9.50;6.65;;;;;;;12.77;48.19;101419.72;5167106;28;20424;-49
2022/03/13 01:45:37;;;;;;;8.13;6.43;;;;;;;12.71;48.34;101417.66;5170024;28;20885;-48
2022/03/13 01:48:10;;;;;;;7.78;5.90;;;;;;;12.61;48.24;101398.34;5159165;28;20444;-49
2022/03/13 01:50:43;;;;;;;5.67;4.87;;;;;;;12.76;48.22;101417.19;5165681;28;20492;-48
2022/03/13 01:53:18;;;;;;;6.75;5.03;;;;;;;12.75;48.26;101415.53;5166603;28;20791;-46
2022/03/13 01:55:55;;;;;;;7.38;4.68;;;;;;;12.64;48.16;101398.88;5166994;28;20433;-45
2022/03/13 01:58:28;;;;;;;6.63;5.18;;;;;;;12.73;48.26;101412.19;5139730;28;20426;-50
2022/03/13 02:01:01;;;;;;;8.20;5.03;;;;;;;12.72;48.42;101408.72;5165986;28;20587;-47
2022/03/13 02:03:33;;;;;;;7.03;5.63;;;;;;;12.72;48.28;101400.78;5168183;28;20413;-48
2022/03/13 02:06:06;;;;;;;9.32;5.55;;;;;;;12.62;48.26;101379.63;5167155;28;20420;-55
2022/03/13 02:08:40;;;;;;;8.57;5.93;;;;;;;12.72;48.33;101386.69;5165990;28;20453;-48
2022/03/13 02:11:17;;;;;;;8.07;6.15;;;;;;;12.71;48.43;101388.50;5167213;28;20417;-56
2022/03/13 02:13:52;;;;;;;9.23;6.40;;;;;;;12.76;48.27;101386.25;5168249;28;20449;-48
2022/03/13 02:16:29;;;;;;;10.15;6.40;;;;;;;12.74;48.31;101382.91;5165867;28;20594;-48
2022/03/13 02:19:01;;;;;;;7.63;5.75;;;;;;;12.54;48.18;101354.88;5167828;28;20421;-48
2022/03/13 02:21:42;;;;;;;6.45;5.20;;;;;;;12.49;48.58;101342.09;5167231;28;20990;-48
2022/03/13 02:24:17;;;;;;;10.55;5.85;;;;;;;12.65;48.23;101370.56;5161245;28;20434;-50
2022/03/13 02:26:59;;;;;;;6.50;5.28;;;;;;;12.64;48.40;101369.72;5165127;28;21082;-46
2022/03/13 02:29:33;;;;;;;8.82;6.45;;;;;;;12.61;48.30;101366.56;5165262;28;20485;-46
2022/03/13 02:32:07;;;;;;;7.93;6.17;;;;;;;12.62;48.46;101368.22;5168468;28;20464;-49
2022/03/13 02:34:39;;;;;;;11.93;7.25;;;;;;;12.64;48.48;101363.59;5166322;28;20484;-48
2022/03/13 02:37:29;;;;;;;7.43;5.73;;;;;;;12.65;48.31;101358.13;5165535;28;20498;-51
2022/03/13 02:40:03;;;;;;;9.55;6.72;;;;;;;12.58;48.06;101351.78;5166453;28;20480;-49
2022/03/13 02:42:36;;;;;;;10.25;7.70;;;;;;;12.63;48.24;101367.22;5169311;28;20420;-46
2022/03/13 02:45:10;;;;;;;9.95;6.57;;;;;;;12.60;48.39;101348.97;5167193;28;20531;-51
2022/03/13 02:47:42;;;;;;;8.32;6.07;;;;;;;12.64;48.29;101353.00;5156830;28;20507;-49
2022/03/13 02:50:15;;;;;;;7.53;5.93;;;;;;;11.95;48.46;101238.75;5165921;28;20460;-47
2022/03/13 02:52:47;;;;;;;7.30;5.25;;;;;;;12.58;48.29;101341.19;5166466;28;20897;-46
2022/03/13 02:55:21;;;;;;;6.90;5.25;;;;;;;12.52;48.26;101323.25;5168033;28;20532;-48
2022/03/13 02:57:54;;;;;;;7.07;5.22;;;;;;;12.60;48.20;101338.38;5166934;28;20957;-48
2022/03/13 03:00:44;;;;;;;9.48;5.50;;;;;;;12.56;48.41;101339.66;5164371;28;20428;-48
2022/03/13 03:03:18;;;;;;;6.72;4.82;;;;;;;12.56;48.42;101340.50;5165824;28;20397;-47
2022/03/13 03:05:51;;;;;;;6.85;5.15;;;;;;;12.55;48.35;101356.56;5167399;28;20432;-52
2022/03/13 03:08:24;;;;;;;8.38;5.65;;;;;;;12.54;48.37;101339.84;5167772;28;20431;-54
2022/03/13 03:10:58;;;;;;;8.85;6.35;;;;;;;12.56;48.46;101337.00;5165265;28;20503;-46
2022/03/13 03:13:30;;;;;;;10.45;6.95;;;;;;;12.57;48.45;101328.06;5165549;28;20412;-49
2022/03/13 03:16:05;;;;;;;9.63;7.22;;;;;;;12.57;48.38;101333.38;5166009;28;20496;-52
2022/03/13 03:18:38;;;;;;;9.68;6.75;;;;;;;12.56;48.30;101332.53;5163997;28;20426;-50
2022/03/13 03:21:11;;;;;;;10.40;6.80;;;;;;;12.55;48.31;101332.72;5161775;28;20491;-47
2022/03/13 03:23:43;;;;;;;8.23;6.10;;;;;;;12.52;48.32;101331.19;5166969;28;20405;-47
2022/03/13 03:26:17;;;;;;;8.73;6.50;;;;;;;12.53;48.40;101332.03;5167940;28;20846;-47
2022/03/13 03:28:49;;;;;;;10.25;7.50;;;;;;;12.53;48.32;101342.63;5166915;28;20511;-47
2022/03/13 03:31:22;;;;;;;9.43;6.65;;;;;;;12.53;48.32;101335.50;5166558;28;20431;-48
2022/03/13 03:33:54;;;;;;;8.60;6.40;;;;;;;12.53;48.46;101351.41;5159898;28;20507;-49
2022/03/13 03:36:27;;;;;;;9.07;5.85;;;;;;;12.49;48.36;101335.97;5159303;28;20836;-46
2022/03/13 03:38:59;;;;;;;8.90;6.55;;;;;;;12.49;48.34;101341.25;5164401;28;20447;-49
2022/03/13 03:41:33;;;;;;;13.27;7.20;;;;;;;12.50;48.46;101338.44;5164675;28;20563;-47
2022/03/13 03:44:07;;;;;;;9.15;6.35;;;;;;;12.48;48.36;101339.56;5138089;28;20504;-47
2022/03/13 03:46:40;;;;;;;10.55;7.05;;;;;;;12.46;48.40;101345.03;5150857;28;20425;-51
2022/03/13 03:49:13;;;;;;;10.20;7.30;;;;;;;12.47;48.38;101341.38;5165797;28;20801;-45
2022/03/13 03:51:46;;;;;;;10.73;7.10;;;;;;;12.46;48.29;101343.22;5164804;28;20464;-46
2022/03/13 03:54:18;;;;;;;8.80;6.50;;;;;;;12.43;48.41;101348.81;5165826;28;20493;-46
2022/03/13 03:56:52;;;;;;;7.15;5.00;;;;;;;12.40;48.33;101354.41;5164074;28;20424;-48
2022/03/13 03:59:25;;;;;;;9.47;5.10;;;;;;;12.39;48.76;101351.91;5167125;28;20978;-48
2022/03/13 04:01:58;;;;;;;7.53;5.57;;;;;;;12.38;48.55;101356.34;5163112;28;20884;-48
2022/03/13 04:04:30;;;;;;;7.13;4.70;;;;;;;12.36;48.21;101341.63;5167607;28;20892;-48
2022/03/13 04:07:03;;;;;;;8.70;5.68;;;;;;;12.40;48.53;101354.41;5159225;28;20487;-48
2022/03/13 04:09:35;;;;;;;7.63;5.22;;;;;;;12.39;48.63;101355.41;5160958;28;20496;-47
2022/03/13 04:12:11;;;;;;;6.85;5.80;;;;;;;12.34;48.65;101356.81;5167181;28;20779;-50
2022/03/13 04:14:43;;;;;;;7.65;5.85;;;;;;;12.31;48.65;101360.59;5163909;28;20491;-47
2022/03/13 04:17:16;;;;;;;6.87;5.17;;;;;;;12.18;48.59;101344.22;5165233;28;20688;-47
2022/03/13 04:19:48;;;;;;;7.13;4.85;;;;;;;12.23;48.77;101348.09;5166032;28;20857;-47
2022/03/13 04:22:21;;;;;;;6.18;4.70;;;;;;;12.28;48.75;101360.88;5164157;28;20420;-47
2022/03/13 04:24:53;;;;;;;7.95;5.57;;;;;;;12.14;48.83;101343.69;5165611;28;20441;-52
2022/03/13 04:27:27;;;;;;;8.15;5.30;;;;;;;12.26;48.61;101357.53;5164145;28;20445;-49
2022/03/13 04:30:00;;;;;;;8.05;5.55;;;;;;;12.15;48.77;101344.53;5162968;28;20405;-49
2022/03/13 04:32:32;;;;;;;7.17;5.67;;;;;;;12.14;48.89;101353.44;5163304;28;20959;-49
2022/03/13 04:35:06;;;;;;;7.78;6.15;;;;;;;12.14;49.00;101350.78;5166073;28;20966;-51
2022/03/13 04:37:38;;;;;;;8.85;6.78;;;;;;;12.14;48.98;101353.44;5164145;28;20508;-48
2022/03/13 04:40:13;;;;;;;7.75;5.97;;;;;;;12.12;49.07;101364.19;5162058;28;20432;-47
2022/03/13 04:42:46;;;;;;;7.63;6.18;;;;;;;12.04;48.88;101345.53;5169268;28;20415;-48
2022/03/13 04:45:19;;;;;;;9.27;7.15;;;;;;;12.08;49.10;101348.72;5167750;28;20495;-50
2022/03/13 04:47:52;;;;;;;13.45;7.95;;;;;;;11.86;48.94;101316.38;5165496;28;20413;-50
2022/03/13 04:50:24;;;;;;;9.90;7.47;;;;;;;12.11;49.06;101353.72;5167121;28;20420;-48
2022/03/13 04:52:57;;;;;;;11.68;7.32;;;;;;;12.07;48.97;101339.13;5177107;28;20815;-46
2022/03/13 04:55:29;;;;;;;10.80;7.07;;;;;;;11.99;49.06;101338.06;5169366;28;20431;-48
2022/03/13 04:58:03;;;;;;;8.30;7.07;;;;;;;12.06;49.16;101345.41;5168944;28;20789;-47
2022/03/13 05:00:38;;;;;;;7.25;5.97;;;;;;;12.07;49.15;101352.34;5166338;28;20488;-47
2022/03/13 05:03:11;;;;;;;7.78;5.72;;;;;;;11.95;49.06;101331.41;5160743;28;20890;-51
2022/03/13 05:05:44;;;;;;;7.63;5.22;;;;;;;12.00;49.29;101337.06;5165458;28;20797;-47
2022/03/13 05:08:16;;;;;;;8.60;6.05;;;;;;;12.05;49.29;101335.78;5168684;28;20853;-47
2022/03/13 05:10:50;;;;;;;8.15;6.00;;;;;;;12.05;49.17;101343.72;5169911;28;20448;-48
2022/03/13 05:13:24;;;;;;;7.30;5.90;;;;;;;12.07;49.15;101336.47;5168418;28;20464;-48
2022/03/13 05:15:57;;;;;;;8.03;6.13;;;;;;;12.07;49.17;101341.78;5165757;28;20806;-51
2022/03/13 05:18:30;;;;;;;7.63;5.80;;;;;;;12.04;49.24;101336.78;5168612;28;20412;-50
2022/03/13 05:21:02;;;;;;;7.55;5.97;;;;;;;11.98;49.38;101339.03;5170833;28;20420;-50
2022/03/13 05:23:35;;;;;;;11.43;7.55;;;;;;;11.92;49.61;101334.34;5167889;28;20420;-54
2022/03/13 05:26:07;;;;;;;9.30;6.67;;;;;;;11.89;49.66;101339.91;5159054;28;20463;-46
2022/03/13 05:28:41;;;;;;;8.80;7.00;;;;;;;11.90;49.62;101341.56;5163554;28;20397;-51
2022/03/13 05:31:54;;;;;;;9.65;7.03;;;;;;;11.89;49.64;101336.41;5167819;28;21378;-45
2022/03/13 05:34:26;;;;;;;8.50;7.07;;;;;;;11.77;49.68;101333.13;5162199;28;20460;-48
2022/03/13 05:36:59;;;;;;;10.73;7.15;;;;;;;11.81;49.76;101342.41;5164225;28;20523;-46
2022/03/13 05:39:31;;;;;;;9.68;7.40;;;;;;;11.79;49.79;101344.38;5170662;28;20431;-50
2022/03/13 05:42:05;;;;;;;8.85;7.15;;;;;;;11.79;49.92;101347.00;5170640;28;20431;-50
2022/03/13 05:44:40;;;;;;;9.48;6.72;;;;;;;11.78;49.83;101342.72;5170955;28;20408;-48
2022/03/13 05:47:12;;;;;;;12.90;7.70;;;;;;;11.78;49.85;101346.19;5167658;28;20568;-49
2022/03/13 05:49:44;;;;;;;8.80;6.53;;;;;;;11.79;49.86;101344.38;5169572;28;20462;-48
2022/03/13 05:53:00;;;;;;;12.45;7.28;;;;;;;11.78;49.93;101351.47;5167574;28;20427;-48
2022/03/13 05:55:33;;;;;;;12.60;8.55;;;;;;;11.76;49.97;101349.94;5166259;28;20491;-48
2022/03/13 05:58:05;;;;;;;12.10;9.20;;;;;;;11.82;49.93;101354.66;5167325;28;20507;-47
2022/03/13 06:00:40;;;;;;;11.70;8.38;;;;;;;11.85;49.86;101346.47;5166450;28;20456;-50
2022/03/13 06:03:13;;;;;;;16.65;9.30;;;;;;;11.84;49.95;101352.72;5166087;28;20432;-51
2022/03/13 06:05:45;;;;;;;13.13;8.95;;;;;;;11.82;50.12;101349.38;5168920;28;20546;-47
2022/03/13 06:08:20;;;;;;;10.82;9.10;;;;;;;11.86;49.97;101350.78;5166964;28;20433;-57
2022/03/13 06:10:53;;;;;;;10.50;8.30;;;;;;;11.84;50.09;101347.41;5166644;28;20541;-47
2022/03/13 06:13:25;;;;;;;11.88;8.75;;;;;;;11.84;50.02;101352.72;5164218;28;20425;-49
2022/03/13 06:15:59;;;;;;;13.10;10.07;;;;;;;11.84;49.96;101355.34;5168268;28;20428;-49
2022/03/13 06:18:32;;;;;;;15.25;10.77;;;;;;;11.86;49.96;101356.09;5168905;28;20475;-50
2022/03/13 06:21:05;;;;;;;14.52;10.45;;;;;;;11.74;50.17;101336.06;5165126;28;20867;-47
2022/03/13 06:23:37;;;;;;;14.13;10.40;;;;;;;11.87;49.98;101352.44;5164962;28;20786;-48
2022/03/13 06:26:11;;;;;;;14.20;10.35;;;;;;;11.82;50.09;101344.06;5166643;28;20979;-51
2022/03/13 06:28:43;;;;;;;17.85;12.10;;;;;;;11.86;50.07;101358.75;5168195;28;20499;-53
2022/03/13 06:31:18;;;;;;;15.68;11.82;;;;;;;11.83;50.07;101356.34;5166309;28;20508;-51
2022/03/13 06:33:50;;;;;;;15.50;12.35;;;;;;;11.84;50.00;101355.34;5138796;28;20887;-49
2022/03/13 06:36:23;;;;;;;14.70;11.75;;;;;;;11.81;50.15;101358.28;5164531;28;20425;-49
2022/03/13 06:38:55;;;;;;;18.05;12.38;;;;;;;11.86;50.06;101358.75;5159299;28;20413;-52
2022/03/13 06:41:28;;;;;;;17.73;12.48;;;;;;;11.89;50.02;101365.53;5165151;28;20440;-48
2022/03/13 06:44:04;;;;;;;19.67;13.87;;;;;;;11.61;50.00;101319.63;5168903;28;20788;-46
2022/03/13 06:46:38;;;;;;;19.55;13.50;;;;;;;11.86;50.16;101363.16;5168020;28;20405;-50
2022/03/13 06:49:10;;;;;;;16.65;12.55;;;;;;;11.77;49.93;101356.94;5162123;28;20409;-51
2022/03/13 06:51:45;;;;;;;19.50;14.27;;;;;;;11.83;49.97;101364.28;5165123;28;20587;-46
2022/03/13 06:54:18;;;;;;;20.40;14.73;;;;;;;11.83;50.01;101359.00;5167232;28;20508;-48
2022/03/13 06:56:51;;;;;;;21.50;15.05;;;;;;;11.83;49.91;101361.63;5165260;28;20425;-47
2022/03/13 06:59:23;;;;;;;23.05;14.60;;;;;;;11.85;49.94;101362.34;5168376;28;20404;-48
2022/03/13 07:01:57;;;;;;;22.67;16.10;;;;;;;11.83;49.90;101350.19;5165854;28;20439;-46
2022/03/13 07:04:30;;;;;;;23.20;15.50;;;;;;;11.90;49.71;101360.09;5161772;28;20409;-47
2022/03/13 07:07:02;;;;;;;20.07;15.30;;;;;;;11.74;49.71;101341.34;5166242;28;20481;-45
2022/03/13 07:09:35;;;;;;;21.75;15.27;;;;;;;11.93;49.75;101354.53;5165007;28;20495;-46
2022/03/13 07:12:11;;;;;;;22.75;15.95;;;;;;;11.95;49.70;101347.28;5166420;28;20421;-47
2022/03/13 07:14:45;;;;;;;21.05;15.88;;;;;;;12.00;49.25;101345.00;5161220;28;20409;-53
2022/03/13 07:17:19;;;;;;;22.58;15.52;;;;;;;11.98;49.72;101343.47;5167874;28;20403;-48
2022/03/13 07:19:51;;;;;;;23.35;14.85;;;;;;;12.09;49.55;101355.72;5165184;28;20437;-54
2022/03/13 07:22:24;;;;;;;24.42;15.63;;;;;;;12.13;49.57;101363.19;5165736;28;20425;-46
2022/03/13 07:24:56;;;;;;;22.30;15.27;;;;;;;12.17;49.41;101358.44;5168679;28;20769;-46
2022/03/13 07:27:29;;;;;;;21.88;15.82;;;;;;;12.20;49.21;101363.44;5164869;28;20421;-51
2022/03/13 07:30:02;;;;;;;20.13;15.00;;;;;;;12.16;49.33;101364.72;5166052;28;20448;-46
2022/03/13 07:32:36;;;;;;;22.83;15.80;;;;;;;12.20;49.35;101366.06;5166960;28;20499;-55
2022/03/13 07:35:09;;;;;;;23.33;16.95;;;;;;;12.22;49.15;101378.19;5164999;28;20457;-50
2022/03/13 07:37:42;;;;;;;21.58;16.65;;;;;;;12.26;49.16;101369.97;5163379;28;20533;-50
2022/03/13 07:40:15;;;;;;;19.75;15.65;;;;;;;12.28;49.20;101371.47;5166868;28;20511;-47
2022/03/13 07:42:47;;;;;;;21.48;16.35;;;;;;;12.31;49.03;101371.19;5167038;28;20446;-47
2022/03/13 07:45:20;;;;;;;22.50;15.98;;;;;;;12.36;49.02;101373.41;5166330;28;20483;-46
2022/03/13 07:47:57;;;;;;;20.70;14.32;;;;;;;12.42;48.79;101378.94;5166434;28;20419;-49
2022/03/13 07:50:31;;;;;;;22.75;15.85;;;;;;;12.46;48.75;101375.00;5166292;28;20536;-50
2022/03/13 07:53:04;;;;;;;23.67;16.40;;;;;;;12.48;48.77;101366.91;5165920;28;20507;-51
2022/03/13 07:55:36;;;;;;;25.65;16.13;;;;;;;12.64;48.54;101366.25;5164680;28;20555;-48
2022/03/13 07:58:09;;;;;;;23.10;15.63;;;;;;;12.80;48.37;101381.47;5167894;28;20516;-47
2022/03/13 08:00:42;;;;;;;30.65;17.58;;;;;;;12.95;48.09;101368.53;5163378;28;20501;-49
2022/03/13 08:03:18;;;;;;;20.60;14.70;;;;;;;13.07;47.90;101367.31;5164549;28;20540;-50
2022/03/13 08:05:52;;;;;;;28.35;14.25;;;;;;;13.07;48.00;101362.00;5163862;28;20412;-47
2022/03/13 08:08:24;;;;;;;20.17;14.75;;;;;;;13.01;48.13;101365.28;5166806;28;20546;-49
2022/03/13 08:10:56;;;;;;;23.23;14.33;;;;;;;12.93;48.26;101360.72;5184418;28;20499;-46
2022/03/13 08:13:29;;;;;;;23.02;16.38;;;;;;;13.06;48.10;101365.63;5182367;28;20421;-47
2022/03/13 08:16:02;;;;;;;20.70;15.65;;;;;;;13.14;47.75;101378.97;5167016;28;20626;-48
2022/03/13 08:18:36;;;;;;;25.50;16.88;;;;;;;13.16;47.90;101366.38;5164530;28;20764;-47
2022/03/13 08:21:09;;;;;;;21.33;16.10;;;;;;;13.22;47.72;101371.06;5164829;28;20454;-46
2022/03/13 08:23:41;;;;;;;20.77;16.10;;;;;;;13.22;47.65;101368.41;5161834;28;20516;-52
2022/03/13 08:26:14;;;;;;;22.92;16.08;;;;;;;13.26;47.62;101361.84;5165632;28;20432;-57
2022/03/13 08:28:47;;;;;;;24.48;15.38;;;;;;;13.35;47.70;101378.69;5163280;28;20852;-54
2022/03/13 08:31:19;;;;;;;20.75;14.98;;;;;;;14.20;46.87;101361.03;5164871;28;20554;-46
2022/03/13 08:33:53;;;;;;;20.92;13.98;;;;;;;14.84;45.89;101347.25;5163727;28;20977;-48
2022/03/13 08:36:25;;;;;;;18.60;13.32;;;;;;;14.97;45.75;101334.28;5160997;28;20556;-48
2022/03/13 08:38:58;;;;;;;17.35;12.80;;;;;;;15.08;45.72;101349.06;5163039;28;20407;-51
2022/03/13 08:41:30;;;;;;;19.97;14.50;;;;;;;15.39;45.43;101351.88;5161650;28;20635;-45
2022/03/13 08:44:03;;;;;;;17.65;12.85;;;;;;;16.42;44.43;101348.38;5165290;28;20495;-51
2022/03/13 08:46:38;;;;;;;17.10;12.60;;;;;;;17.44;42.87;101339.09;5165340;28;20453;-47
2022/03/13 08:49:13;;;;;;;20.92;13.13;;;;;;;17.76;42.46;101342.41;5162282;28;20881;-49
2022/03/13 08:51:45;;;;;;;20.48;14.40;;;;;;;17.38;42.98;101339.00;5165311;28;21024;-52
2022/03/13 08:54:19;;;;;;;17.25;13.40;;;;;;;16.94;43.45;101331.69;5164666;28;20409;-46
2022/03/13 08:56:51;;;;;;;17.92;14.55;;;;;;;16.45;43.99;101327.53;5163718;28;20425;-46
2022/03/13 08:59:24;;;;;;;21.25;14.75;;;;;;;16.38;44.24;101337.22;5165678;28;20841;-50
2022/03/13 09:01:56;;;;;;;20.52;14.40;;;;;;;16.47;44.02;101330.00;5165942;28;20413;-47
2022/03/13 09:04:30;;;;;;;18.73;13.80;;;;;;;16.50;43.72;101322.47;5162807;28;20495;-46
2022/03/13 09:07:03;;;;;;;17.60;13.07;;;;;;;16.84;43.50;101331.94;5162917;28;20425;-54
2022/03/13 09:09:35;;;;;;;21.50;14.63;;;;;;;16.69;43.59;101333.69;5163670;28;20950;-51
2022/03/13 09:12:10;;;;;;;21.40;14.43;;;;;;;16.62;43.70;101330.09;5161846;28;20432;-49
2022/03/13 09:14:42;;;;;;;18.92;13.00;;;;;;;16.50;43.73;101319.81;5157185;28;20405;-47
2022/03/13 09:17:17;;;;;;;22.08;13.88;;;;;;;16.37;43.83;101322.25;5163654;28;20426;-47
2022/03/13 09:19:51;;;;;;;16.58;13.40;;;;;;;16.19;44.00;101321.69;5163487;28;20425;-48
2022/03/13 09:22:30;;;;;;;21.33;14.10;;;;;;;15.64;43.83;101244.34;5159050;28;20427;-46
2022/03/13 09:25:04;;;;;;;18.55;14.02;;;;;;;16.10;43.98;101299.56;5163559;28;20426;-51
2022/03/13 09:27:37;;;;;;;21.47;13.70;;;;;;;16.42;43.63;101333.22;5161539;28;20428;-49
2022/03/13 09:30:11;;;;;;;19.43;13.93;;;;;;;16.62;43.52;101328.25;5164563;28;20416;-51
2022/03/13 09:32:44;;;;;;;23.17;14.52;;;;;;;16.75;43.30;101316.97;5161672;28;20436;-46
2022/03/13 09:35:18;;;;;;;19.67;13.82;;;;;;;16.89;43.23;101318.91;5166139;28;20425;-49
2022/03/13 09:38:27;;;;;;;18.80;14.07;;;;;;;17.12;43.11;101334.06;5159498;28;20427;-51
2022/03/13 09:41:00;;;;;;;19.67;13.57;;;;;;;17.11;43.24;101329.72;5162430;28;20417;-48
2022/03/13 09:43:32;;;;;;;17.90;13.30;;;;;;;17.13;43.07;101335.72;5164580;28;20431;-50
2022/03/13 09:46:05;;;;;;;19.75;13.32;;;;;;;17.20;42.92;101331.31;5171236;28;20482;-50
2022/03/13 09:48:38;;;;;;;21.63;13.35;;;;;;;17.10;43.04;101336.09;5165173;28;20478;-52
2022/03/13 09:51:12;;;;;;;28.63;14.77;;;;;;;17.00;43.12;101326.50;5162841;28;21183;-53
2022/03/13 09:53:44;;;;;;;20.50;14.15;;;;;;;17.01;43.05;101322.81;5138518;28;20502;-49
2022/03/13 09:56:17;;;;;;;17.98;13.10;;;;;;;16.99;42.94;101327.47;5163063;28;20688;-50
2022/03/13 09:58:49;;;;;;;19.17;14.47;;;;;;;16.79;43.01;101324.50;5161676;28;20434;-49
2022/03/13 10:01:22;;;;;;;22.53;14.87;;;;;;;16.66;43.14;101326.03;5162794;28;20421;-47
2022/03/13 10:03:55;;;;;;;18.63;13.70;;;;;;;16.57;43.04;101326.13;5162219;28;20523;-50
2022/03/13 10:06:30;;;;;;;21.65;14.20;;;;;;;16.29;43.06;101296.47;5164649;28;20495;-56
2022/03/13 10:09:27;;;;;;;20.50;13.80;;;;;;;16.58;43.07;101327.78;5163064;28;20862;-49
2022/03/13 10:12:08;;;;;;;19.48;15.15;;;;;;;16.59;42.74;101326.75;5152755;28;20500;-48
2022/03/13 10:15:03;;;;;;;17.67;13.23;;;;;;;16.68;42.62;101340.88;5147080;28;20769;-50
2022/03/13 10:17:37;;;;;;;19.40;14.20;;;;;;;16.65;42.36;101325.22;5166783;28;20420;-47
2022/03/13 10:20:17;;;;;;;19.90;13.87;;;;;;;16.71;42.51;101327.19;5166269;28;20482;-52
2022/03/13 10:22:58;;;;;;;16.95;13.75;;;;;;;16.75;42.46;101340.97;5161997;28;20532;-51
2022/03/13 10:25:33;;;;;;;19.58;12.68;;;;;;;16.64;42.61;101344.09;5164282;28;20424;-50
2022/03/13 10:28:21;;;;;;;18.40;13.73;;;;;;;16.46;42.77;101350.50;5164523;28;20429;-48
2022/03/13 10:31:15;;;;;;;17.88;12.45;;;;;;;16.35;42.99;101337.56;5152146;28;20418;-50
2022/03/13 10:33:55;;;;;;;15.97;12.90;;;;;;;16.31;42.69;101333.59;5143882;28;20925;-46
2022/03/13 10:36:34;;;;;;;17.92;12.00;;;;;;;16.37;42.80;101336.41;5164064;28;20431;-50
2022/03/13 10:39:20;;;;;;;20.40;13.38;;;;;;;16.41;42.62;101328.88;5162817;28;20483;-50
2022/03/13 10:41:57;;;;;;;19.27;13.33;;;;;;;16.50;42.54;101335.81;5166938;28;20431;-51
2022/03/13 10:44:34;;;;;;;20.07;13.17;;;;;;;16.37;42.59;101314.25;5165682;28;20745;-52
2022/03/13 10:47:08;;;;;;;20.08;14.18;;;;;;;16.45;42.50;101324.88;5164855;28;20411;-53
2022/03/13 10:49:44;;;;;;;14.93;12.30;;;;;;;16.46;42.54;101325.69;5161592;28;20820;-48
2022/03/13 10:52:29;;;;;;;19.53;12.80;;;;;;;16.55;42.43;101328.13;5167370;28;20785;-50
2022/03/13 10:55:21;;;;;;;17.40;12.57;;;;;;;16.50;42.46;101319.00;5164168;28;20420;-49
2022/03/13 10:57:57;;;;;;;16.25;11.88;;;;;;;16.52;42.30;101323.16;5163539;28;20419;-49
2022/03/13 11:00:29;;;;;;;16.67;11.05;;;;;;;16.63;42.23;101323.75;5164164;28;20971;-54
2022/03/13 11:03:11;;;;;;;17.98;12.52;;;;;;;16.76;42.05;101330.19;5164233;28;20452;-54
2022/03/13 11:05:44;;;;;;;18.67;12.18;;;;;;;16.89;41.87;101316.25;5160798;28;20780;-49
2022/03/13 11:08:16;;;;;;;14.53;11.50;;;;;;;16.87;41.98;101312.09;5164284;28;21041;-49
2022/03/13 11:10:52;;;;;;;16.20;11.95;;;;;;;16.88;41.93;101311.94;5165115;28;20417;-50
2022/03/13 11:13:27;;;;;;;15.65;11.80;;;;;;;16.86;41.90;101308.59;5164478;28;20413;-50
2022/03/13 11:16:03;;;;;;;18.58;12.60;;;;;;;16.82;41.75;101304.63;5164141;28;20511;-49
2022/03/13 11:18:37;;;;;;;16.38;12.70;;;;;;;16.95;41.75;101312.84;5162905;28;20412;-52
2022/03/13 11:21:10;;;;;;;18.88;12.90;;;;;;;17.12;41.35;101304.69;5166776;28;20428;-48
2022/03/13 11:23:43;;;;;;;16.02;11.43;;;;;;;17.17;41.23;101299.66;5162435;28;20427;-55
2022/03/13 11:26:19;;;;;;;16.30;12.80;;;;;;;16.97;41.33;101278.81;5164596;28;20425;-55
2022/03/13 11:28:53;;;;;;;16.23;12.55;;;;;;;17.06;41.36;101298.22;5164852;28;20515;-48
2022/03/13 11:31:31;;;;;;;21.50;13.02;;;;;;;16.95;41.18;101298.69;5166200;28;20826;-46
2022/03/13 11:34:16;;;;;;;17.83;11.52;;;;;;;16.92;41.37;101296.38;5163323;28;20428;-48
2022/03/13 11:36:49;;;;;;;18.08;12.55;;;;;;;16.93;41.21;101292.69;5161111;28;20750;-50
2022/03/13 11:39:30;;;;;;;19.58;11.57;;;;;;;16.92;41.34;101289.19;5164930;28;20438;-47
2022/03/13 11:42:04;;;;;;;18.35;11.93;;;;;;;16.69;41.34;101259.03;5163841;28;20419;-48
2022/03/13 11:44:43;;;;;;;17.38;12.35;;;;;;;16.73;41.42;101282.50;5164009;28;20492;-49
2022/03/13 11:47:24;;;;;;;15.43;11.82;;;;;;;16.66;41.35;101281.56;5158453;28;20417;-47
2022/03/13 11:49:57;;;;;;;15.90;12.37;;;;;;;16.71;41.25;101279.16;5164538;28;20431;-50